• Join FlightAware (Why Join?)
  • Login
  • US Flag 
06:45AM EDT


 

Airport Tracker/Info


-or-


 

Live Flight TrackerFlight Track Log ✈ ASQ4537 ✈ 20-Jun-2014 ✈ KEWR - KMEM

Flight Track Log - Related Links

Times and Time Zones

All times are in EDT time to prevent confusion due to time zone crossing. See the ASQ4537 flight status page for this flight to view local times or setup timezone preferences in your user account.

Time Position Orientation Groundspeed Altitude Reporting Facility
EDT Latitude Longitude Course Direction KTS MPH feet Rate Location/Type
08:54AM 40.7333 -74.1167 258° West 188 216 2,600  Level New York TRACON
08:55AM 40.7833 -74.1000 14° North 211 243 3,600 1,380 Climbing New York TRACON
08:56AM 40.7833 -74.1833 270° West 247 284 5,400 2,100 Climbing New York TRACON
08:57AM 40.7667 -74.2833 258° West 260 299 7,800 2,160 Climbing New York TRACON
08:58AM 40.7583 -74.3872 264° West 262 302 10,000 1,260 Climbing New York Center
08:59AM 40.6803 -74.9849 258° West  Level FlightAware Approximate
08:59AM 40.7494 -74.4717 262° West 304 350 10,500  Level New York Center
09:00AM 40.7372 -74.5917 262° West 333 383 11,600 1,320 Climbing New York Center
09:01AM 40.7225 -74.7222 262° West 333 383 13,200 1,440 Climbing New York Center
09:02AM 40.7125 -74.8311 263° West 333 383 14,500 1,440 Climbing New York Center
09:03AM 40.6975 -74.9672 262° West 333 383 16,100 1,500 Climbing New York Center
09:04AM 40.6808 -75.0836 259° West 333 383 17,500 1,260 Climbing New York Center
09:05AM 40.6356 -75.1794 238° Southwest 333 383 18,700 1,020 Climbing New York Center
09:06AM 40.5897 -75.2858 240° Southwest 339 390 19,600 900 Climbing New York Center
09:07AM 40.5375 -75.3997 239° Southwest 353 406 20,600 900 Climbing New York Center
09:08AM 40.4853 -75.5108 238° Southwest 363 418 21,500 900 Climbing New York Center
09:09AM 40.4325 -75.6272 239° Southwest 363 418 22,500 900 Climbing New York Center
09:10AM 40.3797 -75.7406 239° Southwest 368 423 23,400 900 Climbing New York Center
09:11AM 40.3292 -75.8567 240° Southwest 373 429 24,400 960 Climbing New York Center
09:12AM 40.2719 -75.9697 236° Southwest 373 429 25,400 900 Climbing New York Center
09:13AM 40.2169 -76.0850 238° Southwest 373 429 26,300 900 Climbing New York Center
09:14AM 40.1658 -76.1981 239° Southwest 373 429 27,200 960 Climbing New York Center
09:15AM 40.1036 -76.3261 238° Southwest 373 429 28,300 960 Climbing New York Center
09:16AM 40.0550 -76.4281 238° Southwest 373 429 29,200 900 Climbing New York Center
09:17AM 40.0036 -76.5406 239° Southwest 373 429 30,100 900 Climbing New York Center
09:18AM 39.9500 -76.6553 239° Southwest 373 429 31,100 900 Climbing New York Center
09:19AM 39.8917 -76.7803 239° Southwest 373 429 32,000 300 Climbing New York Center
09:21AM 39.8078 -76.9689 240° Southwest 404 465 32,000  Level Washington Center
09:22AM 39.7544 -77.0842 239° Southwest 410 472 32,000  Level Washington Center
09:23AM 39.6839 -77.2308 238° Southwest 429 494 32,000  Level Washington Center
09:24AM 39.6258 -77.3508 238° Southwest 444 511 32,000  Level Washington Center
09:25AM 39.5569 -77.4944 238° Southwest 439 505 32,000  Level Washington Center
09:26AM 39.4989 -77.6139 238° Southwest 420 483 32,000  Level Washington Center
09:27AM 39.4317 -77.7572 239° Southwest 420 483 32,000  Level Washington Center
09:27AM 39.3689 -77.8842 237° Southwest 428 493 32,000  Level Washington Center
09:29AM 39.3247 -78.0142 246° West 428 493 32,000  Level Washington Center
09:30AM 39.2569 -78.1703 241° Southwest 457 526 32,000  Level Washington Center
09:31AM 39.2083 -78.2944 243° Southwest 445 512 32,000  Level Washington Center
09:31AM 39.1486 -78.4447 243° Southwest 440 506 32,000  Level Washington Center
09:32AM 39.0956 -78.5683 241° Southwest 446 513 32,000  Level Washington Center
09:34AM 39.0461 -78.7106 246° West 441 507 32,000  Level Washington Center
09:35AM 38.9903 -78.8497 243° Southwest 441 507 32,000  Level Washington Center
09:35AM 38.9214 -78.9961 239° Southwest 441 507 32,000  Level Washington Center
09:37AM 38.8883 -79.1361 253° West 441 507 32,000  Level Washington Center
09:38AM 38.8525 -79.2864 253° West 446 513 32,000  Level Washington Center
09:38AM 38.8186 -79.4364 254° West 446 513 32,000  Level Washington Center
09:40AM 38.7844 -79.5864 254° West 441 507 32,000  Level Washington Center
09:41AM 38.7481 -79.7389 253° West 441 507 32,000  Level Washington Center
09:41AM 38.7117 -79.8858 252° West 441 507 32,000  Level Washington Center
09:42AM 38.6933 -79.9511 250° West 441 507 32,000  Level Indianapolis Center
09:43AM 38.6481 -80.1333 252° West 443 510 32,000  Level Indianapolis Center
09:44AM 38.6128 -80.2842 253° West 443 510 32,000  Level Indianapolis Center
09:45AM 38.5739 -80.4447 253° West 445 512 32,000  Level Indianapolis Center
09:46AM 38.5386 -80.5894 253° West 447 514 32,000  Level Indianapolis Center
09:47AM 38.5011 -80.7411 253° West 447 514 32,000  Level Indianapolis Center
09:48AM 38.4639 -80.8944 253° West 448 516 32,000  Level Indianapolis Center
09:49AM 38.4253 -81.0464 252° West 448 516 32,000  Level Indianapolis Center
09:50AM 38.3792 -81.2319 252° West 451 519 32,000  Level Indianapolis Center
09:51AM 38.3400 -81.3864 252° West 451 519 32,000  Level Indianapolis Center
09:52AM 38.3011 -81.5403 252° West 451 519 32,000  Level Indianapolis Center
09:53AM 38.2636 -81.6925 253° West 451 519 32,000  Level Indianapolis Center
09:54AM 38.2242 -81.8433 252° West 451 519 32,000  Level Indianapolis Center
09:55AM 38.1856 -81.9933 252° West 449 517 32,000  Level Indianapolis Center
09:56AM 38.1467 -82.1419 252° West 447 514 32,000  Level Indianapolis Center
09:58AM 38.1053 -82.3014 252° West 446 513 32,000  Level Indianapolis Center
09:59AM 38.0656 -82.4514 251° West 446 513 32,000  Level Indianapolis Center
10:00AM 38.0186 -82.6275 251° West 449 517 32,000  Level Indianapolis Center
10:01AM 37.9781 -82.7789 251° West 450 518 32,000  Level Indianapolis Center
10:02AM 37.9375 -82.9308 251° West 452 520 32,000  Level Indianapolis Center
10:03AM 37.8969 -83.0817 251° West 453 521 32,000  Level Indianapolis Center
10:04AM 37.8567 -83.2322 251° West 453 521 32,000  Level Indianapolis Center
10:05AM 37.8097 -83.4064 251° West 452 520 32,000  Level Indianapolis Center
10:06AM 37.7681 -83.5531 250° West 451 519 32,000  Level Indianapolis Center
10:07AM 37.7281 -83.7003 251° West 447 514 32,000  Level Indianapolis Center
10:08AM 37.6861 -83.8472 250° West 446 513 32,000  Level Indianapolis Center
10:09AM 37.6461 -83.9947 251° West 446 513 32,000  Level Indianapolis Center
10:10AM 37.5972 -84.1661 250° West 446 513 32,000  Level Indianapolis Center
10:11AM 37.5553 -84.3153 251° West 447 514 32,000  Level Indianapolis Center
10:12AM 37.5131 -84.4678 251° West 455 524 32,000  Level Indianapolis Center
10:13AM 37.4686 -84.6194 250° West 459 528 32,000  Level Indianapolis Center
10:14AM 37.4247 -84.7731 250° West 461 531 32,000  Level Indianapolis Center
10:15AM 37.3742 -84.9492 250° West 461 531 32,000  Level Indianapolis Center
10:16AM 37.3292 -85.0983 249° West 461 531 32,000  Level Indianapolis Center
10:17AM 37.2867 -85.2456 250° West 456 525 32,000  Level Indianapolis Center
10:18AM 37.2450 -85.3919 250° West 450 518 32,000  Level Indianapolis Center
10:19AM 37.2019 -85.5383 250° West 449 517 32,000  Level Indianapolis Center
10:20AM 37.1511 -85.7094 250° West 449 517 32,000  Level Indianapolis Center
10:21AM 37.1061 -85.8592 249° West 450 518 32,000  Level Indianapolis Center
10:22AM 37.0608 -86.0094 249° West 453 521 32,000  Level Indianapolis Center
10:23AM 37.0150 -86.1606 249° West 457 526 32,000  Level Indianapolis Center
10:24AM 36.9683 -86.3111 249° West 458 527 32,000  Level Indianapolis Center
10:25AM 36.9214 -86.4631 249° West 462 532 32,000  Level Indianapolis Center
10:27AM 36.8483 -86.6267 241° Southwest 462 532 32,000  Level Indianapolis Center
10:28AM 36.7872 -86.7639 241° Southwest 457 526 32,000  Level Indianapolis Center
10:29AM 36.7272 -86.8997 241° Southwest 451 519 32,000  Level Indianapolis Center
10:30AM 36.6669 -87.0367 241° Southwest 451 519 32,000  Level Indianapolis Center
10:31AM 36.6047 -87.1769 241° Southwest 456 525 32,000  Level Indianapolis Center
10:32AM 36.5414 -87.3150 240° Southwest 458 527 32,000  Level Indianapolis Center
10:33AM 36.4675 -87.4797 241° Southwest 461 531 32,000  Level Indianapolis Center
10:34AM 36.4042 -87.6208 241° Southwest 462 532 32,000  Level Indianapolis Center
10:35AM 36.3400 -87.7611 240° Southwest 463 533 32,000  Level Indianapolis Center
10:36AM 36.2756 -87.9039 241° Southwest 465 535 32,000 -420 Level Indianapolis Center
10:37AM 36.2006 -88.0647 240° Southwest 463 533 31,100 -960 Descending Memphis Center
10:38AM 36.1414 -88.1936 240° Southwest 454 522 30,000 -1,080 Descending Memphis Center
10:39AM 36.0781 -88.3294 240° Southwest 454 522 28,900 -1,080 Descending Memphis Center
10:40AM 36.0161 -88.4633 240° Southwest 452 520 27,800 -1,260 Descending Memphis Center
10:41AM 35.9417 -88.6231 240° Southwest 449 517 26,400 -1,260 Descending Memphis Center
10:42AM 35.8806 -88.7531 240° Southwest 441 507 25,200 -1,140 Descending Memphis Center
10:43AM 35.8219 -88.8764 240° Southwest 423 487 24,100 -1,080 Descending Memphis Center
10:44AM 35.7633 -88.9997 240° Southwest 418 481 23,000 -1,440 Descending Memphis Center
10:45AM 35.6958 -89.1144 234° Southwest 422 486 21,200 -1,980 Descending Memphis Center
10:46AM 35.6197 -89.2133 227° Southwest 399 459 18,900 -1,800 Descending Memphis Center
10:47AM 35.5522 -89.3006 226° Southwest 366 421 17,500 -1,800 Descending Memphis Center
10:48AM 35.4856 -89.3856 226° Southwest 355 409 15,200 -2,040 Descending Memphis Center
10:49AM 35.4083 -89.4847 226° Southwest 344 396 13,400 -1,380 Descending Memphis Center
10:50AM 35.3444 -89.5656 226° Southwest 337 388 12,400 -1,020 Descending Memphis Center
10:51AM 35.2836 -89.6428 226° Southwest 324 373 11,300 -1,020 Descending Memphis Center
10:52AM 35.2297 -89.7128 227° Southwest 296 341 10,300 -960 Descending Memphis Center
10:53AM 35.1767 -89.7789 226° Southwest 280 322 9,400 -840 Descending Memphis Center
10:55AM 35.1153 -89.8544 225° Southwest 267 307 8,600 -840 Descending Memphis Center
10:56AM 35.0506 -89.8653 188° South 246 283 7,700 -1,020 Descending Memphis Center
10:57AM 34.9842 -89.8642 179° South 245 282 6,600 -1,260 Descending Memphis Center
10:58AM 34.9178 -89.8633 179° South 243 280 5,200 -1,500 Descending Memphis Center
10:59AM 34.8417 -89.8633 180° South 237 273 3,500 -1,260 Descending Memphis Center
11:00AM 34.8167 -89.9111 237° Southwest 214 246 2,600 -720 Descending Memphis Center
11:01AM 34.8367 -89.9572 298° West 190 219 2,000 -300 Descending Memphis Center
11:02AM 34.8825 -89.9742 343° North 180 207 2,000 60 Level Memphis Center
11:02AM 34.9167 -89.9667 10° North 145 167 2,100 -180 Climbing KMEM
11:03AM 34.9500 -89.9667 360° North 137 158 1,800 -540 Descending KMEM
11:04AM 34.9833 -89.9667 360° North 139 160 1,100 -480 Descending KMEM
11:06AM 35.0469 -89.9758 353° North 141 162 600 -360 Descending Memphis Center